createdAt,value
2018-12-26T00:01:17.147Z,45.60
2018-12-26T00:03:58.757Z,45.40
2018-12-26T00:06:42.190Z,45.80
2018-12-26T00:09:23.281Z,45.40
2018-12-26T00:12:04.662Z,45.50
2018-12-26T00:14:45.723Z,45.40
2018-12-26T00:17:26.980Z,45.20
2018-12-26T00:20:08.433Z,45.20
2018-12-26T00:22:37.555Z,45.20
2018-12-26T00:25:25.875Z,45.30
2018-12-26T00:28:14.262Z,45.20
2018-12-26T00:31:02.627Z,45.10
2018-12-26T00:33:50.966Z,44.70
2018-12-26T00:36:39.321Z,44.80
2018-12-26T00:39:27.949Z,45.00
2018-12-26T00:41:57.110Z,44.90
2018-12-26T00:44:45.454Z,45.30
2018-12-26T00:47:33.809Z,45.30
2018-12-26T00:50:22.261Z,45.60
2018-12-26T00:53:10.593Z,45.40
2018-12-26T00:55:58.940Z,45.50
2018-12-26T00:58:47.334Z,45.60
2018-12-26T01:01:35.740Z,45.90
2018-12-26T01:04:24.105Z,45.80
2018-12-26T01:07:12.504Z,46.00
2018-12-26T01:10:00.820Z,45.90
2018-12-26T01:12:29.929Z,46.00
2018-12-26T01:15:18.268Z,46.20
2018-12-26T01:17:59.749Z,46.20
2018-12-26T01:20:41.103Z,46.70
2018-12-26T01:23:22.618Z,47.10
2018-12-26T01:25:51.829Z,47.20
2018-12-26T01:28:40.210Z,47.60
2018-12-26T01:31:28.524Z,47.40
2018-12-26T01:34:31.168Z,47.30
2018-12-26T01:37:06.954Z,47.00
2018-12-26T01:39:36.162Z,47.10
2018-12-26T01:42:25.023Z,47.00
2018-12-26T01:45:13.417Z,46.80
2018-12-26T01:48:01.893Z,46.90
2018-12-26T01:50:50.237Z,47.20
2018-12-26T01:53:38.598Z,47.40
2018-12-26T01:56:28.107Z,47.70
2018-12-26T01:59:17.176Z,47.60
2018-12-26T02:02:05.691Z,47.20
2018-12-26T02:04:54.114Z,46.90
2018-12-26T02:07:42.483Z,47.50
2018-12-26T02:10:30.819Z,47.60
2018-12-26T02:13:19.187Z,47.60
2018-12-26T02:16:07.539Z,47.50
2018-12-26T02:21:48.979Z,47.00
2018-12-26T02:24:30.394Z,46.70
2018-12-26T02:27:11.630Z,46.80
2018-12-26T02:29:52.415Z,47.00
2018-12-26T02:32:33.563Z,46.60
2018-12-26T02:35:14.930Z,46.50
2018-12-26T02:37:44.119Z,46.20
2018-12-26T02:40:32.501Z,46.80
2018-12-26T02:43:20.954Z,46.70
2018-12-26T02:46:09.294Z,46.10
2018-12-26T02:48:38.790Z,46.70
2018-12-26T02:51:27.108Z,46.50
2018-12-26T02:54:15.384Z,46.50
2018-12-26T02:57:03.754Z,46.80
2018-12-26T02:59:33.057Z,47.40
2018-12-26T03:02:02.361Z,47.70
2018-12-26T03:04:50.889Z,47.40
2018-12-26T03:07:39.208Z,47.00
2018-12-26T03:10:27.864Z,46.60
2018-12-26T03:13:16.137Z,46.80
2018-12-26T03:16:04.697Z,46.40
2018-12-26T03:18:34.034Z,46.50
2018-12-26T03:21:22.362Z,46.20
2018-12-26T03:24:10.656Z,45.90
2018-12-26T03:26:59.058Z,45.90
2018-12-26T03:29:48.262Z,45.70
2018-12-26T03:32:36.539Z,46.00
2018-12-26T03:35:27.177Z,46.50
2018-12-26T03:38:15.456Z,46.20
2018-12-26T03:41:22.749Z,46.10
2018-12-26T03:44:11.184Z,45.70
2018-12-26T03:46:59.651Z,45.50
2018-12-26T03:49:48.393Z,45.00
2018-12-26T03:52:36.778Z,45.30
2018-12-26T03:55:27.089Z,45.30
2018-12-26T03:58:15.414Z,45.80
2018-12-26T04:00:56.563Z,46.40
2018-12-26T04:03:37.200Z,46.90
2018-12-26T04:06:18.197Z,47.20
2018-12-26T04:08:59.231Z,47.20
2018-12-26T04:11:40.713Z,48.00
2018-12-26T04:14:21.903Z,47.60
2018-12-26T04:17:03.147Z,47.70
2018-12-26T04:19:44.441Z,47.70
2018-12-26T04:22:25.439Z,47.60
2018-12-26T04:25:06.851Z,47.20
2018-12-26T04:27:48.218Z,47.40
2018-12-26T04:30:29.376Z,47.60
2018-12-26T04:33:10.625Z,47.60
2018-12-26T04:35:51.994Z,47.40
2018-12-26T04:38:33.446Z,47.20
2018-12-26T04:41:14.498Z,47.10
2018-12-26T04:43:55.261Z,47.30
2018-12-26T04:46:36.032Z,47.20
2018-12-26T04:49:16.901Z,47.30
2018-12-26T04:54:41.115Z,47.50
2018-12-26T04:57:24.803Z,47.60
2018-12-26T05:00:05.754Z,48.10
2018-12-26T05:02:46.477Z,48.00
2018-12-26T05:05:28.000Z,48.00
2018-12-26T05:08:16.549Z,48.10
2018-12-26T05:11:04.888Z,48.10
2018-12-26T05:13:53.207Z,47.80
2018-12-26T05:16:41.774Z,47.80
2018-12-26T05:19:30.071Z,47.90
2018-12-26T05:25:26.456Z,47.90
2018-12-26T05:28:07.191Z,47.70
2018-12-26T05:30:48.357Z,47.50
2018-12-26T05:33:29.391Z,47.60
2018-12-26T05:36:11.949Z,47.40
2018-12-26T05:38:53.171Z,47.30
2018-12-26T05:41:34.573Z,47.50
2018-12-26T05:44:15.658Z,47.40
2018-12-26T05:46:44.829Z,47.20
2018-12-26T05:49:33.289Z,47.20
2018-12-26T05:52:21.574Z,47.20
2018-12-26T05:55:10.242Z,47.20
2018-12-26T05:57:58.542Z,47.10
2018-12-26T06:00:47.078Z,47.20
2018-12-26T06:03:35.718Z,47.50
2018-12-26T06:06:24.553Z,47.80
2018-12-26T06:09:13.165Z,47.70
2018-12-26T06:12:01.490Z,48.20
2018-12-26T06:14:49.997Z,47.90
2018-12-26T06:17:38.657Z,47.90
2018-12-26T06:20:27.292Z,47.70
2018-12-26T06:23:15.565Z,47.70
2018-12-26T06:26:03.956Z,48.20
2018-12-26T06:28:52.225Z,48.10
2018-12-26T06:31:41.055Z,47.90
2018-12-26T06:34:29.453Z,47.70
2018-12-26T06:37:10.645Z,47.60
2018-12-26T06:39:51.732Z,47.60
2018-12-26T06:42:32.597Z,48.00
2018-12-26T06:45:13.831Z,47.90
2018-12-26T06:47:58.126Z,47.90
2018-12-26T06:50:39.586Z,48.10
2018-12-26T06:53:20.759Z,48.30
2018-12-26T06:56:01.773Z,48.20
2018-12-26T06:58:31.260Z,48.00
2018-12-26T07:01:20.343Z,47.90
2018-12-26T07:04:08.697Z,48.20
2018-12-26T07:06:57.328Z,48.40
2018-12-26T07:09:27.147Z,48.40
2018-12-26T07:12:15.988Z,48.30
2018-12-26T07:15:04.894Z,48.30
2018-12-26T07:17:53.784Z,49.10
2018-12-26T07:20:44.985Z,49.20
2018-12-26T07:23:33.791Z,48.40
2018-12-26T07:26:03.361Z,48.00
2018-12-26T07:28:35.060Z,49.00
2018-12-26T07:31:23.786Z,48.50
2018-12-26T07:34:12.297Z,48.00
2018-12-26T07:36:42.065Z,49.20
2018-12-26T07:39:11.238Z,50.10
2018-12-26T07:41:59.844Z,48.80
2018-12-26T07:44:29.379Z,49.40
2018-12-26T07:47:17.799Z,49.80
2018-12-26T07:50:06.823Z,52.00
2018-12-26T07:52:55.333Z,52.50
2018-12-26T07:55:43.753Z,50.20
2018-12-26T07:58:32.549Z,46.70
2018-12-26T08:01:02.989Z,43.50
2018-12-26T08:03:51.758Z,40.30
2018-12-26T08:06:40.109Z,35.50
2018-12-26T08:09:10.482Z,32.70
2018-12-26T08:11:59.975Z,30.80
2018-12-26T08:14:29.770Z,29.80
2018-12-26T08:16:59.420Z,29.20
2018-12-26T08:20:06.938Z,28.90
2018-12-26T08:22:36.066Z,28.50
2018-12-26T08:25:07.165Z,27.20
2018-12-26T08:27:55.472Z,26.20
2018-12-26T08:30:44.164Z,26.00
2018-12-26T08:33:13.309Z,25.70
2018-12-26T08:35:42.917Z,26.00
2018-12-26T08:38:31.221Z,25.30
2018-12-26T08:41:19.952Z,24.50
2018-12-26T08:44:08.569Z,24.00
2018-12-26T08:46:57.216Z,24.00
2018-12-26T08:49:45.555Z,23.30
2018-12-26T08:52:27.225Z,23.20
2018-12-26T08:55:08.409Z,22.80
2018-12-26T08:57:49.787Z,22.20
2018-12-26T09:00:31.173Z,21.50
2018-12-26T09:03:12.677Z,21.40
2018-12-26T09:05:53.655Z,21.30
2018-12-26T09:08:35.057Z,21.10
2018-12-26T09:11:16.028Z,20.80
2018-12-26T09:13:45.590Z,20.40
2018-12-26T09:16:34.074Z,20.20
2018-12-26T09:19:22.865Z,20.50
2018-12-26T09:22:11.201Z,20.30
2018-12-26T09:27:35.162Z,20.00
2018-12-26T09:33:19.043Z,19.50
2018-12-26T09:36:08.004Z,19.20
2018-12-26T09:38:56.730Z,18.70
2018-12-26T09:41:45.052Z,18.40
2018-12-26T09:44:33.407Z,18.30
2018-12-26T09:47:14.692Z,18.30
2018-12-26T09:49:56.092Z,18.20
2018-12-26T09:52:36.889Z,17.90
2018-12-26T09:55:18.547Z,18.00
2018-12-26T09:57:59.276Z,17.50
2018-12-26T10:00:40.762Z,17.40
2018-12-26T10:03:22.160Z,17.10
2018-12-26T10:06:03.441Z,16.90
2018-12-26T10:08:44.861Z,17.20
2018-12-26T10:11:25.918Z,17.40
2018-12-26T10:16:49.817Z,17.50
2018-12-26T10:19:31.302Z,17.50
2018-12-26T10:24:54.648Z,17.90
2018-12-26T10:27:35.624Z,18.00
2018-12-26T10:30:17.062Z,17.90
2018-12-26T10:32:57.779Z,18.00
2018-12-26T10:35:26.934Z,17.90
2018-12-26T10:38:15.650Z,17.40
2018-12-26T10:40:44.866Z,17.20
2018-12-26T10:43:33.414Z,17.20
2018-12-26T10:46:22.674Z,17.10
2018-12-26T10:51:47.173Z,16.20
2018-12-26T10:54:35.501Z,16.10
2018-12-26T10:57:24.096Z,16.80
2018-12-26T10:59:53.539Z,16.10
2018-12-26T11:03:01.125Z,15.80
2018-12-26T11:05:30.477Z,16.10
2018-12-26T11:08:18.837Z,17.20
2018-12-26T11:11:07.683Z,17.50
2018-12-26T11:13:56.328Z,18.00
2018-12-26T11:16:45.022Z,18.60
2018-12-26T11:19:14.666Z,17.80
2018-12-26T11:27:21.734Z,16.10
2018-12-26T11:30:10.446Z,16.10
2018-12-26T11:32:58.717Z,16.10
2018-12-26T11:35:28.169Z,15.90
2018-12-26T11:38:16.516Z,15.80
2018-12-26T11:41:07.647Z,16.00
2018-12-26T11:43:56.228Z,15.80
2018-12-26T11:46:44.807Z,15.80
2018-12-26T11:49:33.509Z,15.90
2018-12-26T11:52:22.182Z,16.70
2018-12-26T11:57:46.322Z,19.20
2018-12-26T12:01:14.438Z,21.00
2018-12-26T12:03:56.123Z,23.30
2018-12-26T12:06:37.288Z,25.00
2018-12-26T12:09:18.301Z,26.60
2018-12-26T12:11:59.081Z,28.00
2018-12-26T12:14:40.281Z,29.50
2018-12-26T12:19:52.413Z,31.30
2018-12-26T12:22:59.665Z,32.20
2018-12-26T12:25:28.365Z,32.90
2018-12-26T12:27:57.470Z,33.20
2018-12-26T12:30:29.218Z,32.60
2018-12-26T12:33:17.228Z,32.40
2018-12-26T12:36:05.222Z,32.00
2018-12-26T12:38:53.999Z,33.00
2018-12-26T12:41:23.284Z,33.30
2018-12-26T12:44:30.716Z,33.80
2018-12-26T12:47:18.996Z,34.20
2018-12-26T12:50:07.392Z,34.60
2018-12-26T12:53:14.769Z,35.40
2018-12-26T12:55:57.092Z,34.80
2018-12-26T12:58:37.663Z,35.50
2018-12-26T13:01:18.743Z,35.80
2018-12-26T13:03:59.805Z,36.30
2018-12-26T13:06:29.048Z,36.60
2018-12-26T13:08:58.801Z,37.00
2018-12-26T13:11:46.948Z,37.80
2018-12-26T13:14:35.260Z,37.50
2018-12-26T13:17:23.811Z,37.30
2018-12-26T13:20:32.737Z,36.80
2018-12-26T13:23:22.368Z,36.40
2018-12-26T13:29:18.993Z,35.50
2018-12-26T13:32:07.318Z,35.50
2018-12-26T13:34:56.007Z,35.90
2018-12-26T13:37:45.001Z,35.60
2018-12-26T13:40:27.301Z,35.00
2018-12-26T13:42:45.749Z,34.40
2018-12-26T13:45:36.765Z,35.20
2018-12-26T13:48:25.921Z,34.60
2018-12-26T13:51:15.126Z,34.30
2018-12-26T13:54:03.612Z,33.90
2018-12-26T13:56:32.543Z,33.40
2018-12-26T13:59:02.605Z,33.10
2018-12-26T14:01:31.713Z,32.80
2018-12-26T14:04:39.249Z,33.00
2018-12-26T14:07:09.066Z,32.90
2018-12-26T14:09:38.447Z,32.90
2018-12-26T14:12:27.193Z,33.30
2018-12-26T14:15:15.367Z,33.50
2018-12-26T14:17:44.471Z,33.80
2018-12-26T14:20:47.115Z,33.60
2018-12-26T14:26:13.035Z,33.50
2018-12-26T14:29:01.216Z,33.80
2018-12-26T14:31:51.622Z,34.00
2018-12-26T14:34:39.822Z,34.00
2018-12-26T14:37:28.193Z,34.30
2018-12-26T14:39:57.334Z,34.60
2018-12-26T14:42:45.492Z,34.60
2018-12-26T14:45:33.991Z,34.60
2018-12-26T14:48:22.066Z,34.60
2018-12-26T14:51:10.233Z,35.00
2018-12-26T14:53:58.625Z,35.40
2018-12-26T14:56:46.642Z,35.70
2018-12-26T14:59:34.936Z,35.60
2018-12-26T15:02:22.930Z,36.10
2018-12-26T15:05:11.123Z,36.20
2018-12-26T15:07:59.231Z,35.90
2018-12-26T15:10:47.580Z,36.20
2018-12-26T15:13:35.878Z,36.10
2018-12-26T15:16:24.042Z,35.70
2018-12-26T15:19:15.699Z,35.70
2018-12-26T15:22:04.005Z,35.30
2018-12-26T15:24:52.377Z,34.80
2018-12-26T15:27:40.492Z,35.00
2018-12-26T15:30:28.921Z,34.80
2018-12-26T15:33:18.814Z,34.60
2018-12-26T15:36:06.936Z,36.20
2018-12-26T15:38:55.127Z,37.50
2018-12-26T15:41:43.165Z,38.70
2018-12-26T15:44:31.339Z,39.20
2018-12-26T15:47:00.116Z,39.60
2018-12-26T15:49:41.178Z,39.90
2018-12-26T15:52:21.753Z,39.70
2018-12-26T15:54:50.581Z,39.90
2018-12-26T15:57:38.646Z,40.50
2018-12-26T16:00:27.034Z,40.70
2018-12-26T16:03:15.329Z,41.20
2018-12-26T16:06:03.521Z,42.10
2018-12-26T16:08:51.750Z,42.30
2018-12-26T16:11:59.928Z,41.80
2018-12-26T16:14:30.035Z,42.10
2018-12-26T16:17:18.446Z,41.90
2018-12-26T16:20:07.409Z,41.50
2018-12-26T16:22:55.870Z,41.10
2018-12-26T16:25:44.029Z,40.30
2018-12-26T16:28:32.512Z,40.40
2018-12-26T16:31:20.637Z,40.30
2018-12-26T16:34:08.771Z,40.30
2018-12-26T16:36:57.745Z,40.80
2018-12-26T16:39:35.485Z,40.60
2018-12-26T16:42:17.094Z,40.40
2018-12-26T16:45:05.603Z,40.40
2018-12-26T16:47:46.146Z,40.40
2018-12-26T16:50:27.454Z,40.40
2018-12-26T16:52:58.991Z,41.10
2018-12-26T16:55:47.234Z,41.20
2018-12-26T16:58:35.577Z,41.40
2018-12-26T17:01:23.611Z,41.50
2018-12-26T17:04:11.901Z,41.20
2018-12-26T17:07:00.111Z,41.10
2018-12-26T17:09:29.136Z,41.80
2018-12-26T17:12:17.209Z,43.00
2018-12-26T17:15:06.072Z,43.00
2018-12-26T17:17:54.216Z,43.10
2018-12-26T17:20:42.876Z,43.80
2018-12-26T17:23:31.787Z,43.20
2018-12-26T17:26:22.297Z,43.20
2018-12-26T17:29:11.354Z,42.70
2018-12-26T17:31:40.183Z,42.30
2018-12-26T17:34:28.184Z,42.40
2018-12-26T17:37:16.313Z,43.10
2018-12-26T17:39:45.143Z,43.90
2018-12-26T17:42:27.927Z,44.60
2018-12-26T17:45:08.988Z,45.20
2018-12-26T17:47:50.840Z,45.70
2018-12-26T17:50:32.144Z,46.50
2018-12-26T17:53:13.552Z,47.30
2018-12-26T17:55:54.014Z,48.00
2018-12-26T17:58:23.415Z,47.80
2018-12-26T18:01:30.797Z,48.00
2018-12-26T18:04:38.186Z,48.10
2018-12-26T18:07:26.669Z,47.50
2018-12-26T18:10:29.952Z,47.90
2018-12-26T18:13:05.174Z,48.50
2018-12-26T18:15:34.626Z,48.50
2018-12-26T18:18:22.825Z,48.10
2018-12-26T18:21:11.031Z,48.20
2018-12-26T18:23:40.100Z,48.50
2018-12-26T18:26:21.978Z,48.00
2018-12-26T18:31:45.654Z,46.60
2018-12-26T18:34:30.387Z,46.40
2018-12-26T18:37:11.164Z,46.30
2018-12-26T18:42:34.214Z,46.30
2018-12-26T18:45:15.237Z,46.30
2018-12-26T18:50:39.900Z,46.20
2018-12-26T18:56:05.255Z,46.10
2018-12-26T19:04:44.552Z,46.30
2018-12-26T19:07:32.645Z,47.40
2018-12-26T19:10:21.001Z,47.70
2018-12-26T19:13:09.206Z,47.80
2018-12-26T19:15:57.574Z,48.30
2018-12-26T19:18:46.565Z,48.10
2018-12-26T19:21:38.399Z,48.20
2018-12-26T19:24:26.564Z,47.70
2018-12-26T19:27:10.322Z,46.30
2018-12-26T19:29:59.175Z,46.20
2018-12-26T19:32:40.360Z,46.40
2018-12-26T19:35:31.550Z,46.60
2018-12-26T19:38:19.931Z,46.60
2018-12-26T19:41:08.554Z,45.90
2018-12-26T19:43:56.955Z,45.80
2018-12-26T19:46:45.598Z,45.20
2018-12-26T19:49:33.768Z,45.40
2018-12-26T19:52:21.980Z,45.60
2018-12-26T19:55:10.329Z,45.00
2018-12-26T19:57:43.125Z,44.60
2018-12-26T20:00:52.791Z,44.50
2018-12-26T20:03:41.120Z,45.40
2018-12-26T20:06:29.499Z,46.00
2018-12-26T20:09:18.061Z,45.80
2018-12-26T20:12:08.018Z,45.40
2018-12-26T20:14:37.624Z,45.70
2018-12-26T20:17:26.291Z,45.20
2018-12-26T20:20:14.499Z,44.60
2018-12-26T20:23:22.097Z,44.70
2018-12-26T20:26:11.002Z,44.70
2018-12-26T20:28:52.762Z,44.10
2018-12-26T20:31:33.875Z,43.60
2018-12-26T20:34:15.287Z,43.10
2018-12-26T20:42:45.279Z,42.70
2018-12-26T20:48:06.575Z,44.40
2018-12-26T20:50:55.944Z,44.30
2018-12-26T20:53:47.039Z,44.10
2018-12-26T20:56:36.090Z,44.70
2018-12-26T20:59:07.402Z,44.20
2018-12-26T21:04:51.375Z,43.50
2018-12-26T21:07:59.168Z,43.70
2018-12-26T21:10:47.453Z,43.90
2018-12-26T21:13:16.534Z,44.00
2018-12-26T21:16:04.671Z,44.00
2018-12-26T21:18:33.832Z,44.50
2018-12-26T21:21:22.348Z,44.70
2018-12-26T21:24:10.591Z,44.40
2018-12-26T21:26:52.229Z,43.90
2018-12-26T21:29:33.063Z,44.30
2018-12-26T21:34:57.230Z,44.30
2018-12-26T21:37:37.941Z,44.20
2018-12-26T21:40:19.905Z,44.90
2018-12-26T21:45:42.922Z,44.50
2018-12-26T21:50:55.434Z,43.80
2018-12-26T21:53:24.286Z,43.80
2018-12-26T21:56:13.292Z,44.70
2018-12-26T21:58:42.427Z,45.20
2018-12-26T22:01:24.150Z,45.20
2018-12-26T22:06:47.080Z,45.20
2018-12-26T22:09:28.206Z,46.10
2018-12-26T22:12:09.346Z,45.70
2018-12-26T22:14:50.224Z,45.70
2018-12-26T22:17:19.917Z,46.50
2018-12-26T22:20:08.064Z,46.40
2018-12-26T22:25:51.301Z,45.10
2018-12-26T22:28:22.317Z,44.80
2018-12-26T22:31:10.374Z,45.20
2018-12-26T22:33:59.213Z,45.00
2018-12-26T22:36:47.712Z,44.70
2018-12-26T22:39:36.246Z,44.20
2018-12-26T22:42:25.176Z,44.20
2018-12-26T22:45:13.469Z,44.40
2018-12-26T22:48:01.979Z,44.20
2018-12-26T22:50:50.510Z,44.90
2018-12-26T22:53:38.732Z,45.00
2018-12-26T22:56:27.456Z,44.70
2018-12-26T22:59:15.642Z,44.40
2018-12-26T23:01:57.060Z,44.80
2018-12-26T23:07:09.263Z,43.50
2018-12-26T23:09:57.391Z,43.60
2018-12-26T23:12:26.800Z,43.50
2018-12-26T23:14:56.018Z,43.40
2018-12-26T23:17:44.337Z,42.60
2018-12-26T23:20:32.616Z,42.80
2018-12-26T23:23:20.976Z,43.00
2018-12-26T23:26:02.037Z,42.90
2018-12-26T23:28:42.878Z,42.30
2018-12-26T23:31:12.193Z,41.60
2018-12-26T23:34:00.756Z,41.10
2018-12-26T23:39:42.457Z,40.20
2018-12-26T23:42:30.750Z,40.00
2018-12-26T23:44:59.938Z,40.10
2018-12-26T23:47:47.942Z,40.30
2018-12-26T23:50:36.203Z,40.60
2018-12-26T23:53:24.235Z,41.00
2018-12-26T23:56:12.291Z,41.40
2018-12-26T23:59:00.316Z,41.20
